createdAt,value
2017-09-28T00:00:48.637Z,85.99
2017-09-28T00:03:18.477Z,86.24
2017-09-28T00:05:47.831Z,86.14
2017-09-28T00:08:16.886Z,86.03
2017-09-28T00:10:45.973Z,85.91
2017-09-28T00:22:24.385Z,86.16
2017-09-28T00:24:53.473Z,85.81
2017-09-28T00:27:22.537Z,85.80
2017-09-28T00:29:51.618Z,85.41
2017-09-28T00:32:20.685Z,85.30
2017-09-28T00:34:49.773Z,85.39
2017-09-28T00:37:18.861Z,85.24
2017-09-28T00:39:47.964Z,85.10
2017-09-28T00:42:17.105Z,85.18
2017-09-28T00:44:46.188Z,84.94
2017-09-28T00:47:16.055Z,85.11
2017-09-28T00:49:45.281Z,84.99
2017-09-28T00:52:14.397Z,84.96
2017-09-28T00:54:44.261Z,84.80
2017-09-28T00:57:13.426Z,84.73
2017-09-28T00:59:43.265Z,84.72
2017-09-28T01:02:12.340Z,84.62
2017-09-28T01:04:41.420Z,84.79
2017-09-28T01:07:11.236Z,84.92
2017-09-28T01:09:40.337Z,84.81
2017-09-28T01:12:09.414Z,84.79
2017-09-28T01:14:39.269Z,84.81
2017-09-28T01:17:08.359Z,84.67
2017-09-28T01:19:37.452Z,84.70
2017-09-28T01:22:06.866Z,84.60
2017-09-28T01:24:35.952Z,84.60
2017-09-28T01:27:05.018Z,84.60
2017-09-28T01:29:34.085Z,84.41
2017-09-28T01:32:03.172Z,84.48
2017-09-28T01:34:32.289Z,84.47
2017-09-28T01:37:02.112Z,84.55
2017-09-28T01:39:31.974Z,84.41
2017-09-28T01:42:01.036Z,84.49
2017-09-28T01:44:30.106Z,84.28
2017-09-28T01:47:00.301Z,83.94
2017-09-28T01:49:30.010Z,83.99
2017-09-28T01:51:59.302Z,83.96
2017-09-28T01:54:28.355Z,83.99
2017-09-28T01:56:57.432Z,84.16
2017-09-28T01:59:27.283Z,84.00
2017-09-28T02:01:56.368Z,83.95
2017-09-28T02:04:25.466Z,83.90
2017-09-28T02:06:54.584Z,83.93
2017-09-28T02:09:23.641Z,83.97
2017-09-28T02:11:53.737Z,84.05
2017-09-28T02:14:22.800Z,84.08
2017-09-28T02:16:51.885Z,84.11
2017-09-28T02:19:20.964Z,84.00
2017-09-28T02:21:50.062Z,83.86
2017-09-28T02:24:19.136Z,84.02
2017-09-28T02:26:48.219Z,84.07
2017-09-28T02:29:18.041Z,84.05
2017-09-28T02:31:47.106Z,84.14
2017-09-28T02:34:16.179Z,84.03
2017-09-28T02:36:45.234Z,83.93
2017-09-28T02:39:14.323Z,83.88
2017-09-28T02:41:43.409Z,84.03
2017-09-28T02:44:13.245Z,84.01
2017-09-28T02:46:42.313Z,84.03
2017-09-28T02:49:12.178Z,84.07
2017-09-28T02:51:41.985Z,84.05
2017-09-28T02:54:11.053Z,83.96
2017-09-28T02:56:40.116Z,83.98
2017-09-28T02:59:09.978Z,83.99
2017-09-28T03:01:39.128Z,84.13
2017-09-28T03:04:08.161Z,84.19
2017-09-28T03:06:37.230Z,84.21
2017-09-28T03:09:07.052Z,84.28
2017-09-28T03:11:36.161Z,84.28
2017-09-28T03:14:06.720Z,84.30
2017-09-28T03:16:35.766Z,84.33
2017-09-28T03:19:05.583Z,84.45
2017-09-28T03:21:34.665Z,84.37
2017-09-28T03:24:04.530Z,84.18
2017-09-28T03:26:33.973Z,84.23
2017-09-28T03:29:03.048Z,84.23
2017-09-28T03:31:32.114Z,84.12
2017-09-28T03:34:01.178Z,84.07
2017-09-28T03:36:30.991Z,84.11
2017-09-28T03:39:00.065Z,83.91
2017-09-28T03:41:29.144Z,83.86
2017-09-28T03:43:58.199Z,84.03
2017-09-28T03:46:27.280Z,83.90
2017-09-28T03:48:56.360Z,83.91
2017-09-28T03:51:26.217Z,83.96
2017-09-28T03:53:56.203Z,83.91
2017-09-28T03:56:25.260Z,84.03
2017-09-28T03:58:54.352Z,84.13
2017-09-28T04:01:23.420Z,83.98
2017-09-28T04:03:52.528Z,83.91
2017-09-28T04:06:21.582Z,83.79
2017-09-28T04:08:50.655Z,83.97
2017-09-28T04:11:20.495Z,84.01
2017-09-28T04:13:50.464Z,84.05
2017-09-28T04:16:19.568Z,84.18
2017-09-28T04:18:49.556Z,84.05
2017-09-28T04:21:18.634Z,84.11
2017-09-28T04:23:47.709Z,83.94
2017-09-28T04:26:16.783Z,83.87
2017-09-28T04:28:46.626Z,83.96
2017-09-28T04:31:15.668Z,83.91
2017-09-28T04:33:44.751Z,83.91
2017-09-28T04:36:13.852Z,83.85
2017-09-28T04:38:42.933Z,83.90
2017-09-28T04:41:12.120Z,83.72
2017-09-28T04:43:41.176Z,83.67
2017-09-28T04:46:10.991Z,83.71
2017-09-28T04:48:40.101Z,83.67
2017-09-28T04:51:09.269Z,83.72
2017-09-28T04:53:38.302Z,83.60
2017-09-28T04:56:07.669Z,83.60
2017-09-28T04:58:36.703Z,83.62
2017-09-28T05:01:05.812Z,83.60
2017-09-28T05:03:34.885Z,83.73
2017-09-28T05:06:03.959Z,83.70
2017-09-28T05:08:33.808Z,83.71
2017-09-28T05:11:02.897Z,83.64
2017-09-28T05:13:31.964Z,83.58
2017-09-28T05:16:01.840Z,83.60
2017-09-28T05:18:30.910Z,83.55
2017-09-28T05:20:59.963Z,83.73
2017-09-28T05:23:29.809Z,84.07
2017-09-28T05:25:58.875Z,84.13
2017-09-28T05:28:28.940Z,84.13
2017-09-28T05:30:58.009Z,84.28
2017-09-28T05:33:27.076Z,84.12
2017-09-28T05:35:56.926Z,84.11
2017-09-28T05:38:26.010Z,84.11
2017-09-28T05:40:55.097Z,84.15
2017-09-28T05:43:24.181Z,84.19
2017-09-28T05:45:54.014Z,84.13
2017-09-28T05:48:23.365Z,84.04
2017-09-28T05:50:52.489Z,83.98
2017-09-28T05:53:21.555Z,84.02
2017-09-28T05:55:50.637Z,83.85
2017-09-28T05:58:19.720Z,83.79
2017-09-28T06:00:48.805Z,83.75
2017-09-28T06:03:17.884Z,83.72
2017-09-28T06:05:46.941Z,83.63
2017-09-28T06:08:16.080Z,83.96
2017-09-28T06:10:45.138Z,83.65
2017-09-28T06:13:15.793Z,83.50
2017-09-28T06:15:45.620Z,83.37
2017-09-28T06:18:14.704Z,83.30
2017-09-28T06:20:44.549Z,83.26
2017-09-28T06:23:13.615Z,83.17
2017-09-28T06:25:42.720Z,83.04
2017-09-28T06:28:12.531Z,82.93
2017-09-28T06:30:41.620Z,83.09
2017-09-28T06:33:10.682Z,83.04
2017-09-28T06:35:39.752Z,82.90
2017-09-28T06:38:08.820Z,82.91
2017-09-28T06:40:38.287Z,82.96
2017-09-28T06:43:07.656Z,82.56
2017-09-28T06:45:36.721Z,82.56
2017-09-28T06:48:05.808Z,82.81
2017-09-28T06:50:34.892Z,82.64
2017-09-28T06:53:03.973Z,82.48
2017-09-28T06:55:33.813Z,82.27
2017-09-28T06:58:02.895Z,82.04
2017-09-28T07:00:31.972Z,81.79
2017-09-28T07:03:01.077Z,81.64
2017-09-28T07:05:30.920Z,81.48
2017-09-28T07:07:59.992Z,81.38
2017-09-28T07:10:29.850Z,81.34
2017-09-28T07:12:59.696Z,81.42
2017-09-28T07:15:28.771Z,81.24
2017-09-28T07:17:57.833Z,81.01
2017-09-28T07:20:26.939Z,80.92
2017-09-28T07:22:55.985Z,80.79
2017-09-28T07:25:25.823Z,81.14
2017-09-28T07:27:54.891Z,80.60
2017-09-28T07:30:23.953Z,80.53
2017-09-28T07:32:53.030Z,80.62
2017-09-28T07:35:22.124Z,80.44
2017-09-28T07:37:51.175Z,80.29
2017-09-28T07:40:20.249Z,80.29
2017-09-28T07:42:50.825Z,80.40
2017-09-28T07:45:19.908Z,80.38
2017-09-28T07:47:49.718Z,79.78
2017-09-28T07:50:19.544Z,79.35
2017-09-28T07:52:48.631Z,79.31
2017-09-28T07:55:18.664Z,78.96
2017-09-28T07:57:47.762Z,78.92
2017-09-28T08:00:16.819Z,79.03
2017-09-28T08:02:45.896Z,78.73
2017-09-28T08:05:15.740Z,78.85
2017-09-28T08:07:45.600Z,78.72
2017-09-28T08:10:14.656Z,78.70
2017-09-28T08:12:43.707Z,78.38
2017-09-28T08:15:12.810Z,78.80
2017-09-28T08:17:41.840Z,78.38
2017-09-28T08:20:10.943Z,78.31
2017-09-28T08:22:40.025Z,78.06
2017-09-28T08:25:09.998Z,78.06
2017-09-28T08:27:39.041Z,78.31
2017-09-28T08:30:08.103Z,77.98
2017-09-28T08:32:37.215Z,77.80
2017-09-28T08:35:06.272Z,77.62
2017-09-28T08:37:35.353Z,77.39
2017-09-28T08:40:04.413Z,77.23
2017-09-28T08:42:34.244Z,76.70
2017-09-28T08:45:03.341Z,76.20
2017-09-28T08:47:32.405Z,76.43
2017-09-28T08:50:02.261Z,76.05
2017-09-28T08:52:31.324Z,75.79
2017-09-28T08:55:01.153Z,75.04
2017-09-28T08:57:30.226Z,75.37
2017-09-28T09:00:00.093Z,75.46
2017-09-28T09:02:29.203Z,74.53
2017-09-28T09:04:58.261Z,74.74
2017-09-28T09:07:27.335Z,74.88
2017-09-28T09:09:57.150Z,74.89
2017-09-28T09:12:26.224Z,74.92
2017-09-28T09:14:55.288Z,74.52
2017-09-28T09:17:24.384Z,74.72
2017-09-28T09:19:53.466Z,74.52
2017-09-28T09:22:22.828Z,74.85
2017-09-28T09:24:52.680Z,74.46
2017-09-28T09:27:21.747Z,74.13
2017-09-28T09:29:51.622Z,73.97
2017-09-28T09:32:20.681Z,73.66
2017-09-28T09:34:49.768Z,73.90
2017-09-28T09:37:18.851Z,73.79
2017-09-28T09:39:47.897Z,73.80
2017-09-28T09:42:16.994Z,73.56
2017-09-28T09:44:46.067Z,73.58
2017-09-28T09:47:15.143Z,73.38
2017-09-28T09:49:44.212Z,73.26
2017-09-28T09:52:14.116Z,72.09
2017-09-28T09:54:43.179Z,71.53
2017-09-28T09:57:12.276Z,70.60
2017-09-28T09:59:41.379Z,70.74
2017-09-28T10:02:10.465Z,70.19
2017-09-28T10:04:39.551Z,69.96
2017-09-28T10:07:14.305Z,68.77
2017-09-28T10:09:50.867Z,68.85
2017-09-28T10:12:29.581Z,68.55
2017-09-28T10:15:05.579Z,67.99
2017-09-28T10:17:34.632Z,66.81
2017-09-28T10:20:03.706Z,65.81
2017-09-28T10:22:32.755Z,65.10
2017-09-28T10:25:02.637Z,65.99
2017-09-28T10:27:31.710Z,64.09
2017-09-28T10:30:00.801Z,65.72
2017-09-28T10:32:29.872Z,65.55
2017-09-28T10:34:59.724Z,64.51
2017-09-28T10:37:28.795Z,65.07
2017-09-28T10:39:57.881Z,64.87
2017-09-28T10:42:26.942Z,65.11
2017-09-28T10:44:56.045Z,64.87
2017-09-28T10:47:25.872Z,64.61
2017-09-28T10:49:55.747Z,64.97
2017-09-28T10:52:24.821Z,64.28
2017-09-28T10:54:53.881Z,64.09
2017-09-28T10:57:23.714Z,64.61
2017-09-28T10:59:52.772Z,62.44
2017-09-28T11:02:21.824Z,62.68
2017-09-28T11:04:50.897Z,62.84
2017-09-28T11:07:19.978Z,62.10
2017-09-28T11:09:49.649Z,62.46
2017-09-28T11:12:18.700Z,62.27
2017-09-28T11:14:47.767Z,62.68
2017-09-28T11:17:17.596Z,62.80
2017-09-28T11:19:46.690Z,60.64
2017-09-28T11:22:15.760Z,60.49
2017-09-28T11:24:45.627Z,60.45
2017-09-28T11:27:14.718Z,61.34
2017-09-28T11:29:43.814Z,61.84
2017-09-28T11:32:12.883Z,62.99
2017-09-28T11:34:41.923Z,61.39
2017-09-28T11:37:10.998Z,60.21
2017-09-28T11:39:40.057Z,61.32
2017-09-28T11:42:09.892Z,60.74
2017-09-28T11:44:39.043Z,61.65
2017-09-28T11:47:08.118Z,61.68
2017-09-28T11:49:37.296Z,60.46
2017-09-28T11:52:06.410Z,61.78
2017-09-28T11:54:35.774Z,61.36
2017-09-28T11:57:04.965Z,61.70
2017-09-28T11:59:34.050Z,62.11
2017-09-28T12:02:03.084Z,62.03
2017-09-28T12:04:32.161Z,62.40
2017-09-28T12:07:01.211Z,62.17
2017-09-28T12:09:30.282Z,61.95
2017-09-28T12:11:59.357Z,62.94
2017-09-28T12:14:28.426Z,63.18
2017-09-28T12:16:58.267Z,63.27
2017-09-28T12:19:27.369Z,63.20
2017-09-28T12:21:56.423Z,63.76
2017-09-28T12:24:26.254Z,63.85
2017-09-28T12:26:56.088Z,63.00
2017-09-28T12:29:25.149Z,63.65
2017-09-28T12:31:54.205Z,63.90
2017-09-28T12:34:23.284Z,64.13
2017-09-28T12:36:52.336Z,64.42
2017-09-28T12:39:21.421Z,64.29
2017-09-28T12:41:51.272Z,64.28
2017-09-28T12:44:20.343Z,63.67
2017-09-28T12:46:49.408Z,64.43
2017-09-28T12:49:18.459Z,64.41
2017-09-28T12:51:47.541Z,64.89
2017-09-28T12:54:16.601Z,65.28
2017-09-28T12:56:46.446Z,65.83
2017-09-28T12:59:15.522Z,66.29
2017-09-28T13:01:45.342Z,65.51
2017-09-28T13:04:14.519Z,65.91
2017-09-28T13:06:43.559Z,65.51
2017-09-28T13:09:12.636Z,65.98
2017-09-28T13:11:41.685Z,65.92
2017-09-28T13:14:10.789Z,66.67
2017-09-28T13:16:39.846Z,67.14
2017-09-28T13:19:08.924Z,67.59
2017-09-28T13:21:37.979Z,66.93
2017-09-28T13:24:07.042Z,66.56
2017-09-28T13:26:36.087Z,66.52
2017-09-28T13:29:05.157Z,67.71
2017-09-28T13:31:34.231Z,66.91
2017-09-28T13:34:03.316Z,66.89
2017-09-28T13:36:32.381Z,66.94
2017-09-28T13:39:01.469Z,66.63
2017-09-28T13:41:30.527Z,67.76
2017-09-28T13:43:59.603Z,67.45
2017-09-28T13:46:28.671Z,68.16
2017-09-28T13:48:57.810Z,67.71
2017-09-28T13:51:26.888Z,67.61
2017-09-28T13:53:56.920Z,67.89
2017-09-28T13:56:26.078Z,67.67
2017-09-28T13:58:55.132Z,66.92
2017-09-28T14:01:24.280Z,67.12
2017-09-28T14:03:53.373Z,67.99
2017-09-28T14:06:22.444Z,67.27
2017-09-28T14:08:51.577Z,65.90
2017-09-28T14:11:22.516Z,65.92
2017-09-28T14:13:51.675Z,66.90
2017-09-28T14:16:21.500Z,65.28
2017-09-28T14:18:50.578Z,65.44
2017-09-28T14:21:19.652Z,64.88
2017-09-28T14:23:50.964Z,64.19
2017-09-28T14:26:20.037Z,65.04
2017-09-28T14:28:49.774Z,65.41
2017-09-28T14:31:18.863Z,65.08
2017-09-28T14:33:47.921Z,64.85
2017-09-28T14:36:18.287Z,65.66
2017-09-28T14:38:47.340Z,64.46
2017-09-28T14:41:16.413Z,64.92
2017-09-28T14:43:46.224Z,63.21
2017-09-28T14:46:16.085Z,64.29
2017-09-28T14:48:45.125Z,65.28
2017-09-28T14:51:14.219Z,65.40
2017-09-28T14:53:43.319Z,65.05
2017-09-28T14:56:12.349Z,65.32
2017-09-28T14:58:41.430Z,65.31
2017-09-28T15:01:11.250Z,65.64
2017-09-28T15:03:40.422Z,66.16
2017-09-28T15:06:10.253Z,66.23
2017-09-28T15:08:39.335Z,66.50
2017-09-28T15:11:08.422Z,66.11
2017-09-28T15:13:37.514Z,65.34
2017-09-28T15:16:06.594Z,65.68
2017-09-28T15:18:35.640Z,65.74
2017-09-28T15:21:04.713Z,66.35
2017-09-28T15:23:34.622Z,65.85
2017-09-28T15:26:03.932Z,65.77
2017-09-28T15:28:33.783Z,66.21
2017-09-28T15:31:02.883Z,66.60
2017-09-28T15:33:31.925Z,66.82
2017-09-28T15:36:01.761Z,67.17
2017-09-28T15:38:31.631Z,66.85
2017-09-28T15:41:00.749Z,67.53
2017-09-28T15:43:30.621Z,68.12
2017-09-28T15:45:59.684Z,67.96
2017-09-28T15:48:28.772Z,68.27
2017-09-28T15:50:58.613Z,68.32
2017-09-28T15:53:27.662Z,68.74
2017-09-28T15:55:57.529Z,68.82
2017-09-28T15:58:27.149Z,69.23
2017-09-28T16:00:56.245Z,69.39
2017-09-28T16:03:25.305Z,69.71
2017-09-28T16:05:54.380Z,70.00
2017-09-28T16:08:24.240Z,69.87
2017-09-28T16:10:53.369Z,69.83
2017-09-28T16:13:22.432Z,69.97
2017-09-28T16:15:51.504Z,70.15
2017-09-28T16:18:20.635Z,70.22
2017-09-28T16:20:49.711Z,70.19
2017-09-28T16:23:19.115Z,70.25
2017-09-28T16:25:48.220Z,70.43
2017-09-28T16:28:17.273Z,70.86
2017-09-28T16:30:46.435Z,70.95
2017-09-28T16:33:15.521Z,71.21
2017-09-28T16:35:46.401Z,71.33
2017-09-28T16:38:16.211Z,71.07
2017-09-28T16:40:45.349Z,71.37
2017-09-28T16:43:15.211Z,71.92
2017-09-28T16:45:45.044Z,72.06
2017-09-28T16:48:14.125Z,72.17
2017-09-28T16:50:43.968Z,72.18
2017-09-28T16:53:13.057Z,72.33
2017-09-28T16:55:42.146Z,72.52
2017-09-28T16:58:11.243Z,72.64
2017-09-28T17:00:40.400Z,72.73
2017-09-28T17:03:09.477Z,72.99
2017-09-28T17:05:38.547Z,73.03
2017-09-28T17:08:07.628Z,73.27
2017-09-28T17:10:36.744Z,73.60
2017-09-28T17:13:05.817Z,73.76
2017-09-28T17:15:34.903Z,73.93
2017-09-28T17:18:04.022Z,74.17
2017-09-28T17:20:33.082Z,74.53
2017-09-28T17:23:02.978Z,75.10
2017-09-28T17:25:32.057Z,75.31
2017-09-28T17:28:01.164Z,75.59
2017-09-28T17:30:30.224Z,75.79
2017-09-28T17:32:59.333Z,76.06
2017-09-28T17:35:28.423Z,76.34
2017-09-28T17:37:57.572Z,76.87
2017-09-28T17:40:27.438Z,77.23
2017-09-28T17:42:56.513Z,77.50
2017-09-28T17:45:25.592Z,77.71
2017-09-28T17:47:54.683Z,77.91
2017-09-28T17:50:23.785Z,77.90
2017-09-28T17:52:52.847Z,78.18
2017-09-28T17:55:22.733Z,78.34
2017-09-28T17:57:52.350Z,78.61
2017-09-28T18:00:21.434Z,78.79
2017-09-28T18:02:50.518Z,78.76
2017-09-28T18:05:19.615Z,78.84
2017-09-28T18:07:49.873Z,78.76
2017-09-28T18:10:19.740Z,78.72
2017-09-28T18:12:48.845Z,78.72
2017-09-28T18:15:17.937Z,78.60
2017-09-28T18:17:47.039Z,78.66
2017-09-28T18:20:16.952Z,78.63
2017-09-28T18:22:46.025Z,78.66
2017-09-28T18:25:15.127Z,78.77
2017-09-28T18:27:44.205Z,78.79
2017-09-28T18:30:13.308Z,78.79
2017-09-28T18:32:43.136Z,78.86
2017-09-28T18:35:12.225Z,79.10
2017-09-28T18:37:42.368Z,79.39
2017-09-28T18:40:11.433Z,79.33
2017-09-28T18:42:40.677Z,79.41
2017-09-28T18:45:09.791Z,79.50
2017-09-28T18:47:38.845Z,79.87
2017-09-28T18:50:08.399Z,79.90
2017-09-28T18:52:37.483Z,79.93
2017-09-28T18:55:06.563Z,80.02
2017-09-28T18:57:35.698Z,79.88
2017-09-28T19:00:05.976Z,79.75
2017-09-28T19:02:35.071Z,79.68
2017-09-28T19:05:04.925Z,79.71
2017-09-28T19:07:34.790Z,79.72
2017-09-28T19:10:03.865Z,79.83
2017-09-28T19:12:32.960Z,80.02
2017-09-28T19:15:02.031Z,80.41
2017-09-28T19:17:31.855Z,80.62
2017-09-28T19:20:00.931Z,80.85
2017-09-28T19:22:30.751Z,81.08
2017-09-28T19:24:59.859Z,81.53
2017-09-28T19:27:29.011Z,81.72
2017-09-28T19:29:58.070Z,81.52
2017-09-28T19:32:27.157Z,81.33
2017-09-28T19:34:56.231Z,81.22
2017-09-28T19:37:26.102Z,81.42
2017-09-28T19:39:55.196Z,81.29
2017-09-28T19:42:24.830Z,81.23
2017-09-28T19:44:53.879Z,81.17
2017-09-28T19:47:22.990Z,81.26
2017-09-28T19:49:52.059Z,81.23
2017-09-28T19:52:21.293Z,81.34
2017-09-28T19:54:50.422Z,81.41
2017-09-28T19:57:19.555Z,81.49
2017-09-28T19:59:48.614Z,81.47
2017-09-28T20:02:18.468Z,81.51
2017-09-28T20:04:47.592Z,81.36
2017-09-28T20:07:16.644Z,81.28
2017-09-28T20:09:45.726Z,81.24
2017-09-28T20:12:14.836Z,81.23
2017-09-28T20:14:43.921Z,80.95
2017-09-28T20:17:13.805Z,80.60
2017-09-28T20:19:43.684Z,80.46
2017-09-28T20:22:12.761Z,80.42
2017-09-28T20:24:41.837Z,80.21
2017-09-28T20:27:10.921Z,80.15
2017-09-28T20:29:40.752Z,79.80
2017-09-28T20:32:09.849Z,79.81
2017-09-28T20:34:38.913Z,79.60
2017-09-28T20:37:08.748Z,79.34
2017-09-28T20:39:37.828Z,79.20
2017-09-28T20:42:07.684Z,79.33
2017-09-28T20:44:36.747Z,79.37
2017-09-28T20:47:05.829Z,79.12
2017-09-28T20:49:35.654Z,79.41
2017-09-28T20:52:04.756Z,79.74
2017-09-28T20:54:34.584Z,79.62
2017-09-28T20:57:03.696Z,79.85
2017-09-28T20:59:32.743Z,79.84
2017-09-28T21:02:02.593Z,79.73
2017-09-28T21:04:31.720Z,79.71
2017-09-28T21:07:00.781Z,79.70
2017-09-28T21:09:29.859Z,79.64
2017-09-28T21:11:58.977Z,79.59
2017-09-28T21:14:28.118Z,79.67
2017-09-28T21:16:57.144Z,80.03
2017-09-28T21:19:26.228Z,80.10
2017-09-28T21:21:56.042Z,80.00
2017-09-28T21:24:25.093Z,80.20
2017-09-28T21:26:54.194Z,80.27
2017-09-28T21:29:23.236Z,80.48
2017-09-28T21:31:52.357Z,80.48
2017-09-28T21:34:21.449Z,81.01
2017-09-28T21:36:51.282Z,81.38
2017-09-28T21:39:20.521Z,81.31
2017-09-28T21:41:50.344Z,81.64
2017-09-28T21:44:19.434Z,81.69
2017-09-28T21:46:49.252Z,81.64
2017-09-28T21:49:19.102Z,81.88
2017-09-28T21:51:49.282Z,81.89
2017-09-28T21:54:18.385Z,81.69
2017-09-28T21:56:47.463Z,81.93
2017-09-28T21:59:17.278Z,81.93
2017-09-28T22:01:47.133Z,81.79
2017-09-28T22:04:16.195Z,81.75
2017-09-28T22:06:46.059Z,82.51
2017-09-28T22:09:15.141Z,83.14
2017-09-28T22:11:44.228Z,82.73
2017-09-28T22:14:13.383Z,82.47
2017-09-28T22:16:42.434Z,82.41
2017-09-28T22:19:11.520Z,82.60
2017-09-28T22:21:40.572Z,82.53
2017-09-28T22:24:10.392Z,82.41
2017-09-28T22:26:39.509Z,82.57
2017-09-28T22:29:08.621Z,82.92
2017-09-28T22:31:37.709Z,83.21
2017-09-28T22:34:07.152Z,83.26
2017-09-28T22:36:36.223Z,83.20
2017-09-28T22:39:05.312Z,83.44
2017-09-28T22:41:34.401Z,83.66
2017-09-28T22:44:03.518Z,83.83
2017-09-28T22:46:32.601Z,83.79
2017-09-28T22:49:01.679Z,84.12
2017-09-28T22:51:30.744Z,84.22
2017-09-28T22:54:00.749Z,84.42
2017-09-28T22:56:29.826Z,84.27
2017-09-28T22:58:58.915Z,84.06
2017-09-28T23:01:27.993Z,83.93
2017-09-28T23:03:57.072Z,84.11
2017-09-28T23:06:26.124Z,84.30
2017-09-28T23:08:55.233Z,85.27
2017-09-28T23:11:25.082Z,84.92
2017-09-28T23:13:54.153Z,84.76
2017-09-28T23:16:23.333Z,84.62
2017-09-28T23:18:52.420Z,84.43
2017-09-28T23:21:21.469Z,84.25
2017-09-28T23:23:50.537Z,83.98
2017-09-28T23:26:19.605Z,84.18
2017-09-28T23:28:49.455Z,84.53
2017-09-28T23:31:18.544Z,84.33
2017-09-28T23:33:47.633Z,84.36
2017-09-28T23:36:16.744Z,84.30
2017-09-28T23:38:45.833Z,84.25
2017-09-28T23:41:14.912Z,84.18
2017-09-28T23:43:44.736Z,85.05
2017-09-28T23:46:13.973Z,84.84
2017-09-28T23:48:43.048Z,84.61
2017-09-28T23:51:12.900Z,84.46
2017-09-28T23:53:41.993Z,84.34
2017-09-28T23:56:11.078Z,84.24
2017-09-28T23:58:40.160Z,84.34
